Time;durP1;ratioP1;P1;durP2;ratioP2;P2;SDS_P1;SDS_P2;PMS_P1;PMS_P2;Temp;Humidity;BMP_temperature;BMP_pressure;BME280_temperature;BME280_humidity;BME280_pressure;Samples;Min_cycle;Max_cycle;Signal;HPM_P1;HPM_P2
2021/06/27 00:00:43;;;;;;;4.10;3.25;;;;;;;19.36;75.06;99999.53;6247794;28;20123;-62
2021/06/27 00:03:44;;;;;;;3.63;2.97;;;;;;;19.42;75.33;100004.22;6247928;28;20373;-62
2021/06/27 00:06:47;;;;;;;4.07;2.93;;;;;;;19.39;75.73;99999.22;6247848;28;20038;-62
2021/06/27 00:09:48;;;;;;;3.75;2.85;;;;;;;19.35;75.64;100000.50;6247663;28;20507;-62
2021/06/27 00:12:49;;;;;;;5.07;3.40;;;;;;;19.30;75.76;100006.25;6247987;28;20049;-62
2021/06/27 00:15:50;;;;;;;4.38;3.05;;;;;;;19.24;76.55;100009.50;6229373;28;20072;-62
2021/06/27 00:18:51;;;;;;;4.25;2.85;;;;;;;19.32;76.37;100017.50;6247451;28;20045;-62
2021/06/27 00:21:52;;;;;;;4.73;2.80;;;;;;;19.25;76.87;100023.53;6247911;28;20041;-62
2021/06/27 00:24:53;;;;;;;3.03;2.70;;;;;;;19.25;76.92;100027.03;6248058;28;20041;-62
2021/06/27 00:27:55;;;;;;;7.30;3.07;;;;;;;19.21;77.10;100032.75;6229570;28;20383;-62
2021/06/27 00:30:57;;;;;;;7.07;3.00;;;;;;;19.22;77.22;100034.44;6247271;28;20041;-62
2021/06/27 00:33:58;;;;;;;5.05;3.15;;;;;;;19.24;77.31;100032.47;6247754;28;20076;-62
2021/06/27 00:36:58;;;;;;;4.07;3.20;;;;;;;19.26;77.56;100033.16;6247666;28;20033;-62
2021/06/27 00:39:59;;;;;;;8.27;3.10;;;;;;;19.07;78.53;100026.19;6246998;28;20049;-62
2021/06/27 00:43:00;;;;;;;5.87;3.03;;;;;;;19.09;78.37;100026.88;6241387;28;20041;-62
2021/06/27 00:46:02;;;;;;;4.67;3.33;;;;;;;19.10;78.30;100023.22;6205261;28;20393;-62
2021/06/27 00:49:03;;;;;;;4.77;3.43;;;;;;;19.00;78.96;100027.75;6246356;28;20300;-62
2021/06/27 00:52:04;;;;;;;4.60;3.20;;;;;;;18.97;79.54;100020.13;6228691;28;20045;-62
2021/06/27 00:55:05;;;;;;;4.50;3.03;;;;;;;19.03;78.53;100024.81;6221047;28;20121;-62
2021/06/27 00:58:07;;;;;;;5.50;3.03;;;;;;;18.96;78.72;100021.09;6221248;28;20061;-62
2021/06/27 01:01:09;;;;;;;6.95;3.70;;;;;;;18.96;79.94;100021.91;6221027;28;20085;-62
2021/06/27 01:04:09;;;;;;;7.53;3.10;;;;;;;18.82;80.11;100028.56;6237490;28;20045;-62
2021/06/27 01:07:10;;;;;;;4.67;3.40;;;;;;;18.87;79.87;100036.88;6222268;28;20038;-62
2021/06/27 01:10:12;;;;;;;6.13;3.43;;;;;;;18.86;80.16;100032.56;6204659;28;20046;-62
2021/06/27 01:13:17;;;;;;;4.35;3.08;;;;;;;18.89;79.88;100032.25;6220774;28;20455;-62
2021/06/27 01:16:18;;;;;;;5.70;3.22;;;;;;;18.81;80.57;100020.78;6222125;28;20042;-62
2021/06/27 01:19:19;;;;;;;3.63;3.20;;;;;;;18.84;80.33;100023.97;6222251;28;20049;-62
2021/06/27 01:22:20;;;;;;;3.83;3.13;;;;;;;18.74;81.59;100028.44;6222424;28;20484;-62
2021/06/27 01:25:30;;;;;;;5.38;3.65;;;;;;;18.70;81.73;100030.53;6223180;28;20298;-62
2021/06/27 01:28:31;;;;;;;5.75;3.53;;;;;;;18.67;81.76;100029.97;6227045;28;20056;-62
2021/06/27 01:31:34;;;;;;;3.83;3.43;;;;;;;18.68;81.60;100023.72;6225625;28;20081;-62
2021/06/27 01:34:40;;;;;;;3.97;3.30;;;;;;;18.60;81.94;100019.16;6226764;28;20053;-62
2021/06/27 01:37:42;;;;;;;4.38;3.30;;;;;;;18.67;81.51;100022.06;6226935;28;20057;-62
2021/06/27 01:40:44;;;;;;;5.22;3.30;;;;;;;18.63;82.00;100023.31;6226532;28;20056;-62
2021/06/27 01:43:44;;;;;;;4.38;3.75;;;;;;;18.60;81.93;100019.16;6226414;28;20044;-62
2021/06/27 01:46:46;;;;;;;8.63;3.83;;;;;;;18.63;82.02;100020.69;6226485;28;20042;-62
2021/06/27 01:49:47;;;;;;;4.85;3.70;;;;;;;18.62;82.18;100017.22;6226399;28;20038;-62
2021/06/27 01:52:48;;;;;;;8.63;3.93;;;;;;;18.54;82.45;100019.75;6226361;28;20099;-62
2021/06/27 01:56:04;;;;;;;12.57;3.65;;;;;;;18.43;83.60;100019.91;6224845;28;20120;-62
2021/06/27 01:59:05;;;;;;;4.72;3.85;;;;;;;18.45;83.16;100016.19;6225009;28;20068;-62
2021/06/27 02:02:06;;;;;;;6.05;3.80;;;;;;;18.49;83.07;100016.69;6224936;28;20468;-62
2021/06/27 02:05:07;;;;;;;5.35;3.55;;;;;;;18.51;83.19;100015.59;6226002;28;20042;-62
2021/06/27 02:08:08;;;;;;;4.57;3.80;;;;;;;18.48;83.44;100010.59;6224755;28;20042;-62
2021/06/27 02:11:12;;;;;;;6.83;3.87;;;;;;;18.38;83.90;100012.44;6225954;28;20081;-62
2021/06/27 02:14:12;;;;;;;4.80;4.13;;;;;;;18.43;83.71;100009.34;6225797;28;20259;-62
2021/06/27 02:17:14;;;;;;;7.63;4.43;;;;;;;18.45;83.40;100013.53;6225675;28;20070;-62
2021/06/27 02:20:15;;;;;;;5.30;4.35;;;;;;;18.40;84.30;100007.03;6225524;28;20408;-62
2021/06/27 02:23:16;;;;;;;6.43;4.18;;;;;;;18.43;83.92;100012.84;6224356;28;20042;-62
2021/06/27 02:26:19;;;;;;;6.25;4.20;;;;;;;18.41;83.88;100016.59;6225609;28;20056;-62
2021/06/27 02:29:20;;;;;;;4.45;4.05;;;;;;;18.41;83.79;100009.53;6224312;28;20049;-62
2021/06/27 02:32:22;;;;;;;4.87;4.20;;;;;;;18.33;83.92;100004.97;6225451;28;20049;-62
2021/06/27 02:35:23;;;;;;;9.00;4.10;;;;;;;18.32;84.66;100008.59;6224058;28;20050;-62
2021/06/27 02:38:24;;;;;;;4.23;3.83;;;;;;;18.24;84.93;100002.34;6224679;28;20112;-62
2021/06/27 02:41:25;;;;;;;5.25;4.15;;;;;;;18.21;85.22;99997.38;6225299;28;20041;-62
2021/06/27 02:44:26;;;;;;;5.30;4.22;;;;;;;18.12;85.36;100002.53;6224962;28;20042;-62
2021/06/27 02:47:27;;;;;;;6.10;4.70;;;;;;;18.07;85.79;100003.94;6225344;28;20408;-62
2021/06/27 02:50:28;;;;;;;5.28;4.32;;;;;;;18.06;86.33;100013.66;6226634;28;20042;-62
2021/06/27 02:53:29;;;;;;;6.23;4.40;;;;;;;18.11;86.11;100007.94;6249427;28;20115;-62
2021/06/27 02:56:29;;;;;;;7.60;4.25;;;;;;;18.15;86.16;100005.88;6211492;28;20137;-62
2021/06/27 02:59:30;;;;;;;5.97;4.63;;;;;;;18.07;86.30;100007.41;6246144;28;20061;-62
2021/06/27 03:02:31;;;;;;;5.80;4.50;;;;;;;18.10;86.08;100011.59;6224697;28;20042;-62
2021/06/27 03:05:32;;;;;;;6.50;4.72;;;;;;;18.02;86.59;100014.94;6225073;28;20413;-62
2021/06/27 03:08:33;;;;;;;5.97;4.45;;;;;;;18.10;86.38;100019.50;6224660;28;20409;-62
2021/06/27 03:11:35;;;;;;;6.85;4.75;;;;;;;17.99;87.17;100014.38;6224540;28;20072;-62
2021/06/27 03:14:36;;;;;;;6.63;4.68;;;;;;;18.04;86.80;100015.63;6223076;28;20441;-62
2021/06/27 03:17:37;;;;;;;7.43;4.80;;;;;;;18.00;86.83;100022.16;6224704;28;20057;-62
2021/06/27 03:20:37;;;;;;;5.97;4.65;;;;;;;18.03;87.14;100019.22;6224200;28;20038;-62
2021/06/27 03:23:38;;;;;;;6.70;5.20;;;;;;;18.03;87.08;100018.38;6224414;28;20045;-62
2021/06/27 03:26:39;;;;;;;8.02;4.72;;;;;;;17.91;87.91;100025.63;6224509;28;20053;-62
2021/06/27 03:29:40;;;;;;;6.45;5.55;;;;;;;17.90;88.10;100021.34;6222879;28;20406;-62
2021/06/27 03:32:40;;;;;;;8.55;5.32;;;;;;;18.00;87.23;100022.16;6223931;28;20129;-62
2021/06/27 03:35:42;;;;;;;6.45;5.63;;;;;;;18.12;87.04;100022.84;6223997;28;20042;-62
2021/06/27 03:38:48;;;;;;;5.95;4.90;;;;;;;18.13;87.38;100020.03;6224152;28;20132;-62
2021/06/27 03:41:53;;;;;;;6.60;5.10;;;;;;;18.05;87.80;100025.19;6223827;28;20085;-62
2021/06/27 03:44:54;;;;;;;8.57;5.45;;;;;;;18.06;88.42;100026.03;6223962;28;20531;-62
2021/06/27 03:47:55;;;;;;;6.73;5.57;;;;;;;18.07;88.60;100019.78;6223561;28;20057;-62
2021/06/27 03:50:56;;;;;;;6.55;5.60;;;;;;;18.13;88.49;100022.66;6222704;28;20053;-62
2021/06/27 03:53:57;;;;;;;17.77;6.00;;;;;;;18.22;88.41;100026.28;6223391;28;20068;-62
2021/06/27 03:56:57;;;;;;;6.03;5.30;;;;;;;18.31;87.40;100027.22;6223617;28;20042;-62
2021/06/27 03:59:58;;;;;;;7.55;5.30;;;;;;;18.27;87.65;100024.03;6223241;28;20054;-62
2021/06/27 04:02:59;;;;;;;8.50;5.93;;;;;;;18.35;87.76;100027.78;6223216;28;20042;-62
2021/06/27 04:06:00;;;;;;;6.57;5.40;;;;;;;18.40;87.10;100031.63;6223331;28;20046;-62
2021/06/27 04:09:00;;;;;;;9.70;5.75;;;;;;;18.41;87.42;100014.81;6222122;28;20046;-62
2021/06/27 04:12:01;;;;;;;8.77;5.80;;;;;;;18.51;87.25;100026.16;6238538;28;20487;-62
2021/06/27 04:15:04;;;;;;;9.05;5.30;;;;;;;18.48;86.53;100026.44;6238160;28;20050;-62
2021/06/27 04:18:08;;;;;;;6.75;5.50;;;;;;;18.52;86.35;100033.09;6223773;28;20064;-62
2021/06/27 04:21:09;;;;;;;8.45;5.15;;;;;;;18.56;85.75;100032.81;6222922;28;20416;-62
2021/06/27 04:24:10;;;;;;;6.93;5.13;;;;;;;18.58;85.44;100028.22;6222963;28;20084;-62
2021/06/27 04:27:11;;;;;;;5.53;4.97;;;;;;;18.60;85.64;100023.63;6222875;28;20045;-62
2021/06/27 04:30:12;;;;;;;7.13;4.78;;;;;;;18.58;85.69;100025.59;6223258;28;20212;-62
2021/06/27 04:33:13;;;;;;;7.27;5.13;;;;;;;18.64;85.13;100025.00;6222842;28;20107;-62
2021/06/27 04:36:16;;;;;;;6.97;5.20;;;;;;;18.69;84.98;100031.50;6222682;28;20287;-62
2021/06/27 04:39:17;;;;;;;5.63;5.03;;;;;;;18.66;85.26;100029.16;6222632;28;20049;-62
2021/06/27 04:42:18;;;;;;;7.30;6.27;;;;;;;18.74;84.94;100028.44;6222525;28;20073;-62
2021/06/27 04:45:20;;;;;;;8.20;5.80;;;;;;;18.77;85.18;100027.28;6222581;28;20393;-62
2021/06/27 04:48:20;;;;;;;7.38;5.43;;;;;;;18.78;85.79;100028.94;6221277;28;20042;-62
2021/06/27 04:51:21;;;;;;;5.67;5.03;;;;;;;18.92;85.08;100029.34;6237544;28;20164;-62
2021/06/27 04:54:22;;;;;;;9.98;5.97;;;;;;;18.96;85.05;100037.78;6222440;28;20041;-62
2021/06/27 04:57:23;;;;;;;9.02;6.13;;;;;;;19.03;84.42;100038.03;6221021;28;20200;-62
2021/06/27 05:00:24;;;;;;;8.23;5.65;;;;;;;19.13;84.33;100039.63;6221924;28;20432;-62
2021/06/27 05:03:25;;;;;;;7.77;5.80;;;;;;;19.00;84.83;100043.63;6222165;28;20050;-62
2021/06/27 05:06:25;;;;;;;7.00;5.63;;;;;;;19.11;84.91;100046.06;6222621;28;20050;-62
2021/06/27 05:09:26;;;;;;;6.70;5.20;;;;;;;19.21;84.70;100051.28;6222167;28;20073;-62
2021/06/27 05:12:28;;;;;;;6.37;5.53;;;;;;;19.31;84.46;100042.31;6222327;28;20054;-62
2021/06/27 05:15:28;;;;;;;8.23;5.20;;;;;;;19.41;84.25;100034.28;6222159;28;20516;-62
2021/06/27 05:18:29;;;;;;;5.63;4.90;;;;;;;19.55;83.91;100040.03;6220992;28;20452;-62
2021/06/27 05:21:30;;;;;;;5.87;4.90;;;;;;;19.61;83.49;100042.06;6221993;28;20100;-62
2021/06/27 05:24:31;;;;;;;7.47;4.88;;;;;;;19.70;84.70;100039.34;6220878;28;20108;-62
2021/06/27 05:27:32;;;;;;;5.73;5.13;;;;;;;19.83;83.24;100041.63;6237253;28;20156;-62
2021/06/27 05:30:33;;;;;;;6.37;4.47;;;;;;;19.93;82.20;100039.72;6220555;28;20053;-62
2021/06/27 05:33:34;;;;;;;9.52;4.63;;;;;;;20.10;81.00;100045.97;6222065;28;20049;-62
2021/06/27 05:36:38;;;;;;;5.10;4.50;;;;;;;20.16;80.47;100044.50;6221991;28;20054;-62
2021/06/27 05:39:39;;;;;;;7.20;4.90;;;;;;;20.28;81.11;100045.06;6220689;28;20042;-62
2021/06/27 05:42:40;;;;;;;6.83;4.37;;;;;;;20.38;80.83;100039.66;6221703;28;20053;-62
2021/06/27 05:45:40;;;;;;;5.40;4.43;;;;;;;20.44;79.65;100045.16;6220991;28;20052;-62
2021/06/27 05:48:41;;;;;;;7.93;4.43;;;;;;;20.50;79.30;100039.22;6220466;28;20053;-62
2021/06/27 05:51:42;;;;;;;8.50;4.77;;;;;;;20.49;79.05;100042.03;6221690;28;20500;-62
2021/06/27 05:54:43;;;;;;;5.90;4.03;;;;;;;20.65;79.47;100051.91;6221577;28;20054;-62
2021/06/27 05:57:43;;;;;;;5.80;4.27;;;;;;;20.75;78.87;100047.31;6221716;28;20125;-62
2021/06/27 06:00:44;;;;;;;6.37;3.90;;;;;;;20.85;77.78;100048.00;6221536;28;20200;-62
2021/06/27 06:03:45;;;;;;;5.60;4.53;;;;;;;20.96;77.55;100048.72;6221488;28;20038;-62
2021/06/27 06:06:45;;;;;;;7.70;4.30;;;;;;;21.04;76.91;100049.56;6221510;28;20545;-63
2021/06/27 06:09:46;;;;;;;6.03;3.90;;;;;;;21.12;75.15;100046.09;6221153;28;20100;-63
2021/06/27 06:12:47;;;;;;;6.03;3.50;;;;;;;21.21;73.80;100047.81;6222698;28;20050;-63
2021/06/27 06:15:48;;;;;;;6.80;3.37;;;;;;;21.31;73.19;100043.19;6224291;28;20038;-63
2021/06/27 06:18:49;;;;;;;4.70;3.57;;;;;;;21.44;73.10;100033.94;6240602;28;20057;-63
2021/06/27 06:21:51;;;;;;;5.18;3.72;;;;;;;21.56;72.49;100039.72;6225339;28;20471;-63
2021/06/27 06:24:52;;;;;;;5.53;3.50;;;;;;;21.67;70.80;100042.91;6223859;28;20048;-62
2021/06/27 06:27:53;;;;;;;5.13;3.57;;;;;;;21.77;71.56;100041.91;6238696;28;20042;-62
2021/06/27 06:30:53;;;;;;;7.13;3.20;;;;;;;21.88;70.50;100046.88;6230843;28;20041;-62
2021/06/27 06:33:54;;;;;;;7.40;3.77;;;;;;;22.00;69.02;100047.38;6249775;28;20045;-62
2021/06/27 06:36:55;;;;;;;4.37;3.10;;;;;;;22.07;71.25;100046.53;6247436;28;20044;-62
2021/06/27 06:39:56;;;;;;;4.97;3.20;;;;;;;22.20;67.54;100047.84;6224947;28;20408;-63
2021/06/27 06:42:56;;;;;;;4.43;3.23;;;;;;;22.23;67.95;100047.50;6224861;28;20034;-63
2021/06/27 06:45:57;;;;;;;3.63;2.70;;;;;;;22.30;66.69;100057.31;6236915;28;20502;-63
2021/06/27 06:48:58;;;;;;;4.05;3.10;;;;;;;22.40;65.36;100058.94;6249318;28;20150;-63
2021/06/27 06:51:59;;;;;;;3.27;2.80;;;;;;;22.45;65.24;100061.94;6248225;28;20045;-62
2021/06/27 06:55:00;;;;;;;5.93;2.90;;;;;;;22.51;67.05;100064.72;6249154;28;20045;-62
2021/06/27 06:58:00;;;;;;;3.60;2.93;;;;;;;22.65;64.71;100072.97;6245560;28;20038;-63
2021/06/27 07:01:01;;;;;;;4.80;3.10;;;;;;;22.71;67.54;100083.78;6232135;28;20465;-63
2021/06/27 07:04:02;;;;;;;5.70;2.70;;;;;;;22.80;66.36;100079.25;6224850;28;20608;-63
2021/06/27 07:07:03;;;;;;;3.37;2.93;;;;;;;22.90;67.37;100082.53;6223768;28;20084;-64
2021/06/27 07:10:05;;;;;;;8.70;3.03;;;;;;;22.92;63.38;100091.19;6233991;28;20048;-62
2021/06/27 07:13:05;;;;;;;4.63;2.92;;;;;;;22.86;63.67;100093.72;6224423;28;20046;-63
2021/06/27 07:16:06;;;;;;;6.57;3.00;;;;;;;22.97;64.99;100098.63;6236950;28;20408;-63
2021/06/27 07:19:07;;;;;;;6.60;2.90;;;;;;;23.06;64.11;100105.63;6247035;28;20046;-63
2021/06/27 07:22:08;;;;;;;5.38;2.45;;;;;;;23.08;61.59;100098.28;6244157;28;20455;-63
2021/06/27 07:25:10;;;;;;;6.13;2.72;;;;;;;23.17;62.60;100107.06;6244095;28;20045;-65
2021/06/27 07:28:12;;;;;;;4.65;2.67;;;;;;;23.22;61.85;100102.03;6248419;28;20080;-66
2021/06/27 07:31:13;;;;;;;5.85;2.55;;;;;;;23.35;61.16;100104.13;6222693;28;20099;-64
2021/06/27 07:34:14;;;;;;;3.63;2.50;;;;;;;23.41;59.85;100106.09;6223827;28;20046;-65
2021/06/27 07:37:15;;;;;;;2.60;2.40;;;;;;;23.58;59.80;100109.47;6223595;28;20048;-65
2021/06/27 07:40:16;;;;;;;6.23;2.50;;;;;;;23.69;59.09;100102.91;6223626;28;20078;-64
2021/06/27 07:43:17;;;;;;;3.97;2.37;;;;;;;23.69;58.33;100105.56;6222323;28;20725;-64
2021/06/27 07:46:18;;;;;;;4.18;2.55;;;;;;;23.80;59.37;100102.50;6223457;28;20068;-64
2021/06/27 07:49:19;;;;;;;4.77;2.30;;;;;;;23.77;57.17;100107.38;6222169;28;20046;-64
2021/06/27 07:52:20;;;;;;;4.00;2.70;;;;;;;23.71;55.80;100108.88;6222261;28;20042;-64
2021/06/27 07:55:21;;;;;;;3.73;2.40;;;;;;;23.82;58.04;100110.34;6223160;28;20053;-64
2021/06/27 07:58:21;;;;;;;3.63;2.47;;;;;;;23.78;57.66;100115.19;6246111;28;20712;-63
2021/06/27 08:01:23;;;;;;;5.17;2.03;;;;;;;23.87;57.46;100113.31;6240891;28;20065;-65
2021/06/27 08:04:24;;;;;;;12.02;2.30;;;;;;;23.92;57.80;100109.06;6189396;28;20050;-65
2021/06/27 08:07:25;;;;;;;4.00;2.17;;;;;;;23.97;57.90;100110.38;6222951;28;20049;-65
2021/06/27 08:10:26;;;;;;;5.90;2.20;;;;;;;23.96;56.98;100108.72;6222831;28;20042;-65
2021/06/27 08:13:26;;;;;;;2.70;2.40;;;;;;;23.92;56.15;100103.75;6222817;28;20046;-65
2021/06/27 08:16:27;;;;;;;2.80;2.50;;;;;;;24.00;56.61;100110.84;6222805;28;20792;-63
2021/06/27 08:19:28;;;;;;;4.37;2.10;;;;;;;24.13;54.65;100095.09;6221602;28;20378;-64
2021/06/27 08:22:29;;;;;;;2.75;2.38;;;;;;;24.14;55.06;100093.25;6205503;28;20048;-64
2021/06/27 08:25:30;;;;;;;3.60;2.23;;;;;;;24.20;55.90;100099.69;6205227;28;20509;-65
2021/06/27 08:28:31;;;;;;;3.30;2.30;;;;;;;24.26;55.96;100089.13;6222602;28;20452;-65
2021/06/27 08:31:32;;;;;;;3.25;2.40;;;;;;;24.37;57.10;100092.34;6221324;28;20042;-65
2021/06/27 08:34:32;;;;;;;3.03;2.00;;;;;;;24.49;55.50;100086.41;6222125;28;20104;-65
2021/06/27 08:37:33;;;;;;;5.38;2.30;;;;;;;24.57;55.64;100096.16;6220906;28;20070;-65
2021/06/27 08:40:36;;;;;;;4.23;2.30;;;;;;;24.59;57.27;100088.00;6221045;28;20046;-65
2021/06/27 08:43:36;;;;;;;3.47;2.60;;;;;;;24.63;53.09;100079.44;6222135;28;20294;-65
2021/06/27 08:46:41;;;;;;;4.70;2.67;;;;;;;24.68;54.61;100092.22;6222271;28;20041;-64
2021/06/27 08:49:46;;;;;;;4.40;2.53;;;;;;;24.79;55.93;100089.09;6222132;28;20064;-64
2021/06/27 08:52:47;;;;;;;4.22;2.22;;;;;;;24.89;55.84;100086.13;6220801;28;20519;-65
2021/06/27 08:56:04;;;;;;;3.40;2.38;;;;;;;25.01;54.28;100081.94;6222003;28;20049;-62
2021/06/27 08:59:06;;;;;;;3.45;1.90;;;;;;;25.10;53.45;100078.19;6220705;28;20058;-63
2021/06/27 09:02:08;;;;;;;3.50;1.85;;;;;;;25.13;52.33;100082.31;6237221;28;20049;-65
2021/06/27 09:05:10;;;;;;;4.82;2.05;;;;;;;25.08;53.76;100074.88;6236945;28;20358;-64
2021/06/27 09:08:16;;;;;;;6.70;2.35;;;;;;;25.15;54.27;100080.28;6221761;28;20045;-65
2021/06/27 09:11:17;;;;;;;2.80;2.00;;;;;;;25.27;54.55;100069.97;6220586;28;20038;-66
2021/06/27 09:14:38;;;;;;;4.35;2.20;;;;;;;25.38;52.08;100080.13;6204315;28;20408;-66
2021/06/27 09:17:43;;;;;;;3.33;1.80;;;;;;;25.40;51.74;100091.47;6220455;28;20081;-65
2021/06/27 09:20:55;;;;;;;4.90;2.30;;;;;;;25.46;52.05;100089.88;6221755;28;20073;-66
2021/06/27 09:23:56;;;;;;;3.13;2.20;;;;;;;25.51;52.15;100084.78;6221580;28;20465;-63
2021/06/27 09:27:14;;;;;;;2.45;2.00;;;;;;;26.10;47.02;100087.19;6222253;28;20054;-62
2021/06/27 09:30:21;;;;;;;2.88;2.20;;;;;;;26.33;47.68;100084.25;6222112;28;20084;-62
2021/06/27 09:33:25;;;;;;;2.67;1.98;;;;;;;26.63;50.18;100086.75;6222043;28;20042;-62
2021/06/27 09:36:26;;;;;;;2.78;2.33;;;;;;;26.82;46.72;100082.50;6222030;28;20489;-61
2021/06/27 09:39:29;;;;;;;;;;;;;;;26.78;45.73;100083.94;6222202;28;20049;-61
2021/06/27 09:42:30;;;;;;;9.18;2.67;;;;;;;26.70;44.31;100078.72;6221531;28;19968;-61
2021/06/27 09:45:47;;;;;;;3.17;2.42;;;;;;;26.77;44.47;100076.94;6237188;28;20124;-62
2021/06/27 09:48:50;;;;;;;3.85;2.13;;;;;;;26.72;44.81;100066.81;6225792;28;20060;-63
2021/06/27 09:51:53;;;;;;;8.13;2.35;;;;;;;26.69;45.38;100074.44;6227014;28;20069;-64
2021/06/27 09:55:09;;;;;;;4.15;2.08;;;;;;;26.63;46.25;100064.50;6226915;28;20049;-61
2021/06/27 09:58:17;;;;;;;5.20;2.03;;;;;;;26.67;44.75;100065.78;6227458;28;20046;-61
2021/06/27 10:01:22;;;;;;;2.17;1.83;;;;;;;26.74;42.32;100063.94;6225467;28;20495;-62
2021/06/27 10:04:31;;;;;;;3.17;2.00;;;;;;;26.74;44.07;100066.63;6226598;28;20478;-62
2021/06/27 10:07:38;;;;;;;3.47;2.30;;;;;;;26.91;44.95;100064.41;6226581;28;20366;-61
2021/06/27 10:10:39;;;;;;;5.13;2.10;;;;;;;26.99;46.10;100068.78;6226610;28;20046;-62
2021/06/27 10:13:42;;;;;;;3.88;2.03;;;;;;;27.10;43.95;100071.69;6226706;28;20104;-63
2021/06/27 10:16:43;;;;;;;3.50;1.63;;;;;;;27.25;44.02;100076.09;6226554;28;20046;-63
2021/06/27 10:19:45;;;;;;;5.10;1.90;;;;;;;27.28;40.71;100079.22;6225103;28;20484;-62
2021/06/27 10:22:45;;;;;;;2.50;1.90;;;;;;;27.26;41.49;100075.06;6226560;28;20046;-66
2021/06/27 10:25:48;;;;;;;4.32;1.98;;;;;;;27.39;42.00;100077.78;6241876;28;20054;-64
2021/06/27 10:28:50;;;;;;;2.97;1.80;;;;;;;27.58;40.50;100073.47;6226500;28;20054;-65
2021/06/27 10:31:53;;;;;;;2.85;1.80;;;;;;;27.59;39.36;100075.13;6225194;28;20052;-65
2021/06/27 10:34:55;;;;;;;2.25;2.05;;;;;;;27.65;39.48;100066.25;6226487;28;20053;-65
2021/06/27 10:37:58;;;;;;;3.65;1.58;;;;;;;27.55;39.43;100065.88;6225131;28;20143;-65
2021/06/27 10:41:00;;;;;;;2.95;1.95;;;;;;;27.71;39.61;100064.63;6226114;28;20393;-66
2021/06/27 10:44:02;;;;;;;;;;;;;;;27.77;39.75;100074.50;6226227;28;20046;-65
2021/06/27 10:47:04;;;;;;;6.28;2.05;;;;;;;27.76;40.24;100074.72;6224650;28;19921;-65
2021/06/27 10:50:08;;;;;;;7.80;2.10;;;;;;;27.59;40.63;100075.13;6225037;28;20042;-65
2021/06/27 10:53:09;;;;;;;4.47;2.03;;;;;;;27.62;42.75;100076.59;6238481;28;20115;-65
2021/06/27 10:56:09;;;;;;;2.83;2.13;;;;;;;27.71;43.38;100070.78;6248223;28;20365;-64
2021/06/27 10:59:39;;;;;;;2.10;1.90;;;;;;;27.55;44.22;100063.19;6247322;28;20057;-65
2021/06/27 11:02:41;;;;;;;3.20;2.30;;;;;;;27.37;42.90;100063.75;6250153;28;20103;-65
2021/06/27 11:05:43;;;;;;;2.33;2.00;;;;;;;27.27;43.78;100056.13;6249849;28;20049;-65
2021/06/27 11:08:49;;;;;;;2.60;1.80;;;;;;;27.60;41.90;100052.66;6249413;28;20042;-64
2021/06/27 11:11:55;;;;;;;3.38;1.88;;;;;;;27.83;43.11;100049.56;6231820;28;20038;-64
2021/06/27 11:15:14;;;;;;;3.38;2.03;;;;;;;27.73;41.30;100049.16;6249381;28;20049;-64
2021/06/27 11:18:47;;;;;;;4.00;1.85;;;;;;;27.85;41.28;100050.19;6247894;28;20196;-65
2021/06/27 11:21:48;;;;;;;2.08;1.70;;;;;;;28.16;44.02;100050.59;6249374;28;20110;-65
2021/06/27 11:24:51;;;;;;;3.30;1.85;;;;;;;27.98;39.60;100056.59;6247513;28;20041;-63
2021/06/27 11:27:52;;;;;;;2.05;1.85;;;;;;;28.14;40.88;100051.63;6248498;28;20049;-63
2021/06/27 11:31:23;;;;;;;2.15;1.83;;;;;;;28.41;40.64;100050.75;6248312;28;20052;-63
2021/06/27 11:34:25;;;;;;;5.32;1.85;;;;;;;28.38;40.80;100046.63;6246668;28;20191;-63
2021/06/27 11:37:26;;;;;;;4.55;2.00;;;;;;;28.54;38.83;100037.34;6248145;28;20416;-61
2021/06/27 11:40:50;;;;;;;4.18;1.58;;;;;;;28.33;40.67;100028.50;6248307;28;20041;-61
2021/06/27 11:44:00;;;;;;;3.13;1.63;;;;;;;28.41;40.48;100037.34;6258004;28;20046;-61
2021/06/27 11:47:21;;;;;;;2.65;2.08;;;;;;;28.67;39.08;100026.53;6246817;28;20489;-62
2021/06/27 11:50:31;;;;;;;2.85;1.85;;;;;;;28.71;38.09;100030.44;6247614;28;20120;-62
2021/06/27 11:53:31;;;;;;;2.55;1.65;;;;;;;28.78;38.17;100033.09;6246102;28;20053;-61
2021/06/27 11:57:00;;;;;;;2.35;1.77;;;;;;;28.86;38.60;100027.47;6247875;28;20494;-60
2021/06/27 12:00:01;;;;;;;4.53;2.13;;;;;;;29.20;39.87;100027.31;6247327;28;20444;-61
2021/06/27 12:03:10;;;;;;;2.50;1.75;;;;;;;29.38;38.45;100030.09;6246585;28;20088;-60
2021/06/27 12:06:12;;;;;;;4.53;1.70;;;;;;;29.17;37.80;100025.09;6246311;28;20416;-60
2021/06/27 12:09:13;;;;;;;3.45;1.92;;;;;;;29.03;38.04;100017.06;6247156;28;20045;-60
2021/06/27 12:12:13;;;;;;;2.58;1.60;;;;;;;28.42;38.06;100014.84;6246895;28;20464;-61
2021/06/27 12:15:14;;;;;;;1.75;1.50;;;;;;;28.51;39.04;100008.22;6247265;28;20049;-60
2021/06/27 12:18:20;;;;;;;2.15;1.80;;;;;;;29.00;39.53;100009.44;6247354;28;20053;-62
2021/06/27 12:21:25;;;;;;;2.17;1.98;;;;;;;29.11;37.21;100011.47;6247532;28;20053;-60
2021/06/27 12:24:25;;;;;;;3.17;1.90;;;;;;;29.13;38.44;100009.38;6247095;28;20042;-60
2021/06/27 12:27:26;;;;;;;3.10;1.88;;;;;;;29.35;39.07;100013.59;6245884;28;20102;-60
2021/06/27 12:30:37;;;;;;;2.40;1.95;;;;;;;29.54;37.70;100007.25;6247124;28;20049;-61
2021/06/27 12:33:40;;;;;;;2.72;1.88;;;;;;;29.49;37.60;100001.72;6246982;28;20073;-60
2021/06/27 12:36:49;;;;;;;3.83;1.83;;;;;;;29.57;35.50;100009.50;6247030;28;20041;-61
2021/06/27 12:39:50;;;;;;;5.07;2.22;;;;;;;29.35;35.97;100003.66;6246714;28;20041;-59
2021/06/27 12:42:51;;;;;;;3.10;1.90;;;;;;;29.58;36.29;100003.06;6245898;28;20053;-60
2021/06/27 12:46:15;;;;;;;3.28;1.80;;;;;;;29.92;38.25;100004.47;6229183;28;20403;-60
2021/06/27 12:49:18;;;;;;;5.13;1.98;;;;;;;30.03;36.69;99994.00;6245315;28;20468;-60
2021/06/27 12:52:22;;;;;;;2.67;1.98;;;;;;;30.05;35.52;99994.59;6246533;28;20041;-60
2021/06/27 12:55:23;;;;;;;3.30;2.03;;;;;;;29.95;35.89;99999.69;6246724;28;20073;-61
2021/06/27 12:58:24;;;;;;;2.33;1.75;;;;;;;29.98;37.11;100004.59;6245007;28;20087;-60
2021/06/27 13:01:25;;;;;;;3.10;1.92;;;;;;;29.98;36.44;99999.22;6245383;28;20041;-60
2021/06/27 13:04:26;;;;;;;;;;;;;;;29.89;35.18;100004.88;6246801;28;20053;-60
2021/06/27 13:07:34;;;;;;;3.72;1.90;;;;;;;29.82;33.54;100006.00;6246470;28;19921;-60
2021/06/27 13:10:35;;;;;;;2.20;1.80;;;;;;;29.89;35.25;100006.75;6246369;28;20068;-60
2021/06/27 13:13:36;;;;;;;5.43;1.83;;;;;;;30.19;34.51;100008.75;6236742;28;20068;-60
2021/06/27 13:16:36;;;;;;;2.40;1.58;;;;;;;30.36;34.22;99992.84;6221811;28;20129;-64
2021/06/27 13:19:38;;;;;;;8.65;1.80;;;;;;;30.69;34.49;99997.81;6204450;28;20085;-65
2021/06/27 13:22:59;;;;;;;3.15;1.77;;;;;;;30.69;33.79;99993.25;6224874;28;20096;-65
2021/06/27 13:26:07;;;;;;;3.45;1.83;;;;;;;30.52;33.01;99992.25;6226872;28;20045;-65
2021/06/27 13:29:20;;;;;;;8.75;1.85;;;;;;;30.50;32.98;100000.53;6225378;28;20519;-64
2021/06/27 13:32:24;;;;;;;1.95;1.75;;;;;;;30.53;33.83;99996.56;6241680;28;20111;-64
2021/06/27 13:35:36;;;;;;;1.90;1.70;;;;;;;30.58;32.64;99996.72;6225295;28;20050;-64
2021/06/27 13:38:47;;;;;;;5.03;1.90;;;;;;;30.10;33.22;99997.44;6226587;28;20133;-64
2021/06/27 13:41:48;;;;;;;2.63;1.80;;;;;;;30.15;33.05;99996.78;6233744;28;20116;-64
2021/06/27 13:44:59;;;;;;;1.83;1.65;;;;;;;30.81;33.76;99992.50;6238702;28;20045;-64
2021/06/27 13:48:00;;;;;;;5.10;1.98;;;;;;;31.51;33.26;99994.59;6240370;28;20048;-65
2021/06/27 13:51:01;;;;;;;;;;;;;;;31.97;32.19;99992.13;6228776;28;20050;-64
2021/06/27 13:54:02;;;;;;;2.85;1.60;;;;;;;33.08;29.51;99986.59;6247459;28;19960;-64
2021/06/27 13:57:03;;;;;;;2.55;1.80;;;;;;;33.60;30.07;99982.81;6234804;28;20054;-63
2021/06/27 14:00:08;;;;;;;1.77;1.60;;;;;;;33.71;28.08;99992.78;6226764;28;20065;-64
2021/06/27 14:03:09;;;;;;;9.07;1.70;;;;;;;33.70;28.60;99983.00;6226072;28;20049;-64
2021/06/27 14:06:10;;;;;;;2.00;1.58;;;;;;;33.48;29.60;99975.63;6225792;28;20097;-63
2021/06/27 14:09:11;;;;;;;4.18;1.60;;;;;;;32.93;30.71;99979.00;6225416;28;20088;-61
2021/06/27 14:12:12;;;;;;;3.03;1.70;;;;;;;32.23;29.85;99978.16;6237366;28;20072;-62